Time;durP1;ratioP1;P1;durP2;ratioP2;P2;SDS_P1;SDS_P2;PMS_P1;PMS_P2;Temp;Humidity;BMP_temperature;BMP_pressure;BME280_temperature;BME280_humidity;BME280_pressure;Samples;Min_cycle;Max_cycle;Signal;HPM_P1;HPM_P2
2023/08/23 00:01:04;;;;;;;;;;;26.10;62.20;;;;;;5117243;28;19946;-59
2023/08/23 00:03:48;;;;;;;;;;;26.10;62.20;;;;;;5117332;28;19928;-59
2023/08/23 00:06:15;;;;;;;;;;;26.10;62.20;;;;;;5116580;28;19954;-59
2023/08/23 00:08:42;;;;;;;;;;;26.00;62.10;;;;;;5117088;28;19924;-59
2023/08/23 00:11:09;;;;;;;;;;;26.10;62.20;;;;;;5116660;28;20325;-59
2023/08/23 00:13:36;;;;;;;;;;;26.10;62.20;;;;;;5116688;28;19928;-58
2023/08/23 00:16:03;;;;;;;;;;;26.10;62.10;;;;;;5116802;28;19925;-59
2023/08/23 00:18:30;;;;;;;;;;;26.10;62.10;;;;;;5116859;28;19924;-59
2023/08/23 00:20:57;;;;;;;;;;;26.10;62.10;;;;;;5116786;28;20014;-59
2023/08/23 00:23:24;;;;;;;;;;;26.10;62.10;;;;;;5116459;28;19969;-59
2023/08/23 00:25:51;;;;;;;;;;;26.10;62.10;;;;;;5116619;28;19923;-58
2023/08/23 00:28:19;;;;;;;;;;;26.10;62.00;;;;;;5116450;28;19974;-59
2023/08/23 00:30:50;;;;;;;;;;;26.10;62.00;;;;;;5097096;28;19928;-59
2023/08/23 00:33:17;;;;;;;;;;;26.10;62.10;;;;;;5095519;28;19924;-59
2023/08/23 00:35:45;;;;;;;;;;;26.10;62.00;;;;;;5095239;28;20003;-60
2023/08/23 00:38:12;;;;;;;;;;;26.10;62.00;;;;;;5096206;28;19927;-59
2023/08/23 00:40:39;;;;;;;;;;;26.10;62.00;;;;;;5095651;28;19924;-59
2023/08/23 00:43:09;;;;;;;;;;;26.10;62.00;;;;;;5095838;28;19928;-59
2023/08/23 00:45:36;;;;;;;;;;;26.10;62.00;;;;;;5094370;28;19928;-59
2023/08/23 00:48:04;;;;;;;;;;;26.10;62.00;;;;;;5096178;28;19924;-59
2023/08/23 00:50:32;;;;;;;;;;;26.10;62.00;;;;;;5095661;28;20299;-59
2023/08/23 00:52:59;;;;;;;;;;;26.10;62.00;;;;;;5095845;28;19969;-59
2023/08/23 00:55:26;;;;;;;;;;;26.10;62.00;;;;;;5095403;28;19928;-59
2023/08/23 00:57:53;;;;;;;;;;;26.10;62.00;;;;;;5095780;28;20014;-59
2023/08/23 01:00:20;;;;;;;;;;;26.10;62.00;;;;;;5095332;28;19963;-59
2023/08/23 01:02:47;;;;;;;;;;;26.10;62.00;;;;;;5094982;28;20448;-59
2023/08/23 01:05:15;;;;;;;;;;;26.10;62.00;;;;;;5094730;28;20296;-59
2023/08/23 01:07:46;;;;;;;;;;;26.10;62.10;;;;;;5095629;28;20006;-59
2023/08/23 01:10:21;;;;;;;;;;;26.00;62.00;;;;;;5095065;28;20527;-59
2023/08/23 01:12:57;;;;;;;;;;;26.10;62.10;;;;;;5094914;28;19928;-59
2023/08/23 01:15:24;;;;;;;;;;;26.10;62.10;;;;;;5094858;28;20023;-59
2023/08/23 01:17:52;;;;;;;;;;;26.10;62.10;;;;;;5095046;28;19954;-61
2023/08/23 01:20:20;;;;;;;;;;;26.10;62.10;;;;;;5095100;28;19931;-59
2023/08/23 01:22:56;;;;;;;;;;;26.10;62.10;;;;;;5094988;28;20380;-59
2023/08/23 01:25:23;;;;;;;;;;;26.10;62.10;;;;;;5093523;28;19924;-59
2023/08/23 01:27:50;;;;;;;;;;;26.00;62.10;;;;;;5094964;28;19936;-59
2023/08/23 01:30:23;;;;;;;;;;;26.00;62.10;;;;;;5095067;28;19925;-59
2023/08/23 01:33:00;;;;;;;;;;;26.00;62.10;;;;;;5094438;28;19924;-59
2023/08/23 01:35:32;;;;;;;;;;;26.00;62.10;;;;;;5093763;28;19947;-59
2023/08/23 01:38:00;;;;;;;;;;;26.00;62.40;;;;;;5094376;28;19975;-59
2023/08/23 01:40:27;;;;;;;;;;;26.00;62.20;;;;;;5094767;28;19987;-59
2023/08/23 01:42:54;;;;;;;;;;;26.00;62.10;;;;;;5094279;28;19924;-59
2023/08/23 01:45:21;;;;;;;;;;;26.00;62.20;;;;;;5094164;28;19924;-59
2023/08/23 01:47:49;;;;;;;;;;;26.00;62.20;;;;;;5094819;28;19924;-59
2023/08/23 01:50:17;;;;;;;;;;;26.00;62.20;;;;;;5094578;28;19981;-59
2023/08/23 01:52:43;;;;;;;;;;;26.00;62.20;;;;;;5094432;28;20253;-59
2023/08/23 01:55:10;;;;;;;;;;;26.00;62.20;;;;;;5094350;28;19924;-59
2023/08/23 01:57:40;;;;;;;;;;;26.00;62.20;;;;;;5094220;28;19982;-59
2023/08/23 02:00:07;;;;;;;;;;;26.00;62.20;;;;;;5093892;28;20006;-59
2023/08/23 02:02:34;;;;;;;;;;;26.00;62.20;;;;;;5094283;28;19924;-58
2023/08/23 02:05:01;;;;;;;;;;;26.00;62.20;;;;;;5093795;28;19927;-59
2023/08/23 02:07:28;;;;;;;;;;;26.00;62.20;;;;;;5094097;28;19963;-59
2023/08/23 02:09:55;;;;;;;;;;;26.00;62.20;;;;;;5093879;28;19969;-59
2023/08/23 02:12:22;;;;;;;;;;;26.00;62.20;;;;;;5093708;28;20020;-58
2023/08/23 02:14:49;;;;;;;;;;;25.90;62.10;;;;;;5093245;28;20016;-59
2023/08/23 02:17:15;;;;;;;;;;;26.00;62.20;;;;;;5094042;28;19970;-59
2023/08/23 02:19:42;;;;;;;;;;;26.00;62.20;;;;;;5094121;28;19975;-59
2023/08/23 02:22:09;;;;;;;;;;;26.00;62.20;;;;;;5093284;28;19928;-59
2023/08/23 02:24:36;;;;;;;;;;;26.00;62.10;;;;;;5093276;28;19927;-58
2023/08/23 02:27:03;;;;;;;;;;;26.00;62.10;;;;;;5094189;28;20281;-60
2023/08/23 02:29:30;;;;;;;;;;;26.00;62.10;;;;;;5093695;28;19970;-59
2023/08/23 02:31:57;;;;;;;;;;;26.00;62.10;;;;;;5093872;28;19967;-59
2023/08/23 02:34:24;;;;;;;;;;;26.00;62.00;;;;;;5093007;28;20388;-59
2023/08/23 02:36:51;;;;;;;;;;;26.00;62.00;;;;;;5093787;28;19931;-59
2023/08/23 02:39:18;;;;;;;;;;;26.00;62.00;;;;;;5092489;28;20011;-59
2023/08/23 02:41:45;;;;;;;;;;;26.00;62.00;;;;;;5093488;28;20398;-58
2023/08/23 02:44:12;;;;;;;;;;;26.00;62.00;;;;;;5093801;28;19928;-59
2023/08/23 02:46:39;;;;;;;;;;;26.00;62.00;;;;;;5093560;28;19924;-58
2023/08/23 02:49:06;;;;;;;;;;;26.00;62.00;;;;;;5093903;28;20103;-60
2023/08/23 02:51:33;;;;;;;;;;;26.00;62.00;;;;;;5093556;28;19978;-59
2023/08/23 02:54:00;;;;;;;;;;;26.00;62.00;;;;;;5092886;28;19924;-59
2023/08/23 02:56:27;;;;;;;;;;;26.10;62.00;;;;;;5093089;28;20018;-59
2023/08/23 02:58:54;;;;;;;;;;;26.00;61.90;;;;;;5093769;28;20269;-59
2023/08/23 03:01:21;;;;;;;;;;;26.00;61.90;;;;;;5093052;28;19924;-59
2023/08/23 03:03:48;;;;;;;;;;;26.00;62.00;;;;;;5093206;28;19928;-59
2023/08/23 03:06:15;;;;;;;;;;;26.00;62.00;;;;;;5093524;28;19973;-59
2023/08/23 03:08:42;;;;;;;;;;;26.00;62.00;;;;;;5093423;28;20450;-59
2023/08/23 03:11:09;;;;;;;;;;;26.00;62.00;;;;;;5093246;28;19986;-59
2023/08/23 03:13:36;;;;;;;;;;;26.00;62.00;;;;;;5093423;28;19924;-59
2023/08/23 03:16:03;;;;;;;;;;;26.00;62.00;;;;;;5092694;28;19977;-59
2023/08/23 03:18:32;;;;;;;;;;;26.00;62.00;;;;;;5092571;28;21302;-59
2023/08/23 03:20:59;;;;;;;;;;;26.00;62.00;;;;;;5093304;28;19978;-58
2023/08/23 03:23:26;;;;;;;;;;;26.00;62.10;;;;;;5092496;28;19930;-59
2023/08/23 03:25:53;;;;;;;;;;;25.90;62.00;;;;;;5092595;28;20419;-59
2023/08/23 03:28:20;;;;;;;;;;;26.00;62.10;;;;;;5096250;28;20010;-59
2023/08/23 03:30:47;;;;;;;;;;;26.00;62.10;;;;;;5097084;28;19958;-59
2023/08/23 03:33:14;;;;;;;;;;;26.00;62.10;;;;;;5096429;28;19924;-59
2023/08/23 03:35:41;;;;;;;;;;;25.90;62.00;;;;;;5095575;28;19931;-59
2023/08/23 03:38:08;;;;;;;;;;;26.00;62.10;;;;;;5090643;28;20015;-59
2023/08/23 03:40:38;;;;;;;;;;;25.90;62.00;;;;;;5094217;28;20327;-59
2023/08/23 03:43:06;;;;;;;;;;;25.90;62.00;;;;;;5089726;28;19924;-58
2023/08/23 03:45:33;;;;;;;;;;;25.90;62.10;;;;;;5096505;28;20395;-59
2023/08/23 03:48:00;;;;;;;;;;;25.90;62.10;;;;;;5096878;28;19947;-58
2023/08/23 03:50:27;;;;;;;;;;;25.90;62.10;;;;;;5090375;28;19932;-59
2023/08/23 03:52:54;;;;;;;;;;;25.90;62.10;;;;;;5085099;28;20385;-58
2023/08/23 03:55:21;;;;;;;;;;;25.90;62.00;;;;;;5076170;28;20015;-59
2023/08/23 03:57:50;;;;;;;;;;;25.90;62.00;;;;;;5085765;28;19971;-58
2023/08/23 04:00:18;;;;;;;;;;;25.90;62.10;;;;;;5085473;28;19924;-60
2023/08/23 04:02:45;;;;;;;;;;;25.90;62.00;;;;;;5083956;28;20327;-59
2023/08/23 04:05:12;;;;;;;;;;;25.90;62.00;;;;;;5083577;28;19972;-59
2023/08/23 04:07:40;;;;;;;;;;;25.90;62.00;;;;;;5095730;28;19924;-59
2023/08/23 04:10:07;;;;;;;;;;;25.90;62.00;;;;;;5096362;28;19963;-59
2023/08/23 04:12:34;;;;;;;;;;;25.90;62.00;;;;;;5096581;28;20019;-59
2023/08/23 04:15:01;;;;;;;;;;;25.90;62.00;;;;;;5086348;28;20462;-59
2023/08/23 04:17:28;;;;;;;;;;;25.90;62.00;;;;;;5092212;28;20377;-59
2023/08/23 04:19:55;;;;;;;;;;;25.90;61.90;;;;;;5082043;28;19931;-59
2023/08/23 04:22:22;;;;;;;;;;;25.90;61.90;;;;;;5085477;28;19967;-59
2023/08/23 04:24:49;;;;;;;;;;;25.90;61.90;;;;;;5084027;28;20451;-59
2023/08/23 04:27:16;;;;;;;;;;;26.00;61.90;;;;;;5081347;28;19924;-58
2023/08/23 04:29:43;;;;;;;;;;;25.90;61.80;;;;;;5085283;28;20003;-59
2023/08/23 04:32:12;;;;;;;;;;;26.00;61.80;;;;;;5076706;28;20011;-59
2023/08/23 04:34:40;;;;;;;;;;;26.00;61.80;;;;;;5075334;28;19987;-59
2023/08/23 04:37:07;;;;;;;;;;;26.00;61.70;;;;;;5074304;28;20019;-58
2023/08/23 04:39:34;;;;;;;;;;;25.90;61.90;;;;;;5081902;28;19924;-58
2023/08/23 04:42:02;;;;;;;;;;;25.90;62.40;;;;;;5087524;28;19924;-59
2023/08/23 04:44:29;;;;;;;;;;;25.70;62.00;;;;;;5085869;28;20331;-58
2023/08/23 04:46:57;;;;;;;;;;;25.60;60.00;;;;;;5082431;28;19973;-58
2023/08/23 04:49:24;;;;;;;;;;;25.40;58.20;;;;;;5088296;28;19924;-58
2023/08/23 04:51:51;;;;;;;;;;;25.10;56.60;;;;;;5077812;28;20035;-58
2023/08/23 04:54:18;;;;;;;;;;;24.80;55.30;;;;;;5088513;28;19978;-58
2023/08/23 04:56:45;;;;;;;;;;;24.60;54.30;;;;;;5075211;28;19931;-59
2023/08/23 04:59:12;;;;;;;;;;;24.30;54.10;;;;;;5095062;28;19924;-58
2023/08/23 05:01:39;;;;;;;;;;;24.10;53.50;;;;;;5087696;28;20011;-58
2023/08/23 05:04:07;;;;;;;;;;;23.90;52.80;;;;;;5084596;28;19924;-58
2023/08/23 05:06:34;;;;;;;;;;;23.60;53.20;;;;;;5095109;28;19924;-58
2023/08/23 05:09:04;;;;;;;;;;;23.40;53.00;;;;;;5094764;28;19924;-58
2023/08/23 05:11:31;;;;;;;;;;;23.20;53.00;;;;;;5089996;28;20377;-59
2023/08/23 05:13:58;;;;;;;;;;;23.00;52.50;;;;;;5084675;28;19924;-59
2023/08/23 05:16:25;;;;;;;;;;;22.80;52.50;;;;;;5078597;28;19987;-59
2023/08/23 05:18:52;;;;;;;;;;;22.50;52.30;;;;;;5094384;28;19924;-58
2023/08/23 05:21:19;;;;;;;;;;;22.30;54.40;;;;;;5093879;28;19939;-66
2023/08/23 05:23:46;;;;;;;;;;;22.10;52.50;;;;;;5082941;28;19958;-66
2023/08/23 05:26:14;;;;;;;;;;;21.90;52.10;;;;;;5086086;28;19931;-67
2023/08/23 05:28:40;;;;;;;;;;;21.70;52.90;;;;;;5077610;28;19986;-67
2023/08/23 05:31:08;;;;;;;;;;;21.60;53.00;;;;;;5077125;28;19954;-67
2023/08/23 05:33:35;;;;;;;;;;;21.40;53.00;;;;;;5078368;28;19932;-67
2023/08/23 05:36:02;;;;;;;;;;;21.30;53.40;;;;;;5078641;28;19932;-67
2023/08/23 05:38:29;;;;;;;;;;;21.20;54.40;;;;;;5073801;28;20039;-67
2023/08/23 05:40:56;;;;;;;;;;;21.10;55.50;;;;;;5080922;28;20384;-67
2023/08/23 05:43:24;;;;;;;;;;;21.00;55.10;;;;;;5079137;28;20322;-66
2023/08/23 05:45:54;;;;;;;;;;;21.00;56.00;;;;;;5076975;28;19924;-68
2023/08/23 05:48:22;;;;;;;;;;;20.90;55.40;;;;;;5075449;28;20385;-67
2023/08/23 05:50:49;;;;;;;;;;;20.90;56.50;;;;;;5077173;28;20384;-67
2023/08/23 05:53:19;;;;;;;;;;;20.80;57.50;;;;;;5075805;28;19978;-66
2023/08/23 05:55:48;;;;;;;;;;;20.80;59.60;;;;;;5072390;28;20019;-66
2023/08/23 05:58:16;;;;;;;;;;;20.70;61.10;;;;;;5069082;28;19975;-66
2023/08/23 06:00:44;;;;;;;;;;;20.60;62.50;;;;;;5073329;28;20023;-66
2023/08/23 06:03:14;;;;;;;;;;;20.50;62.50;;;;;;5071444;28;20019;-66
2023/08/23 06:05:43;;;;;;;;;;;20.50;64.20;;;;;;5065262;28;20031;-66
2023/08/23 06:08:10;;;;;;;;;;;20.40;62.00;;;;;;5070551;28;19994;-66
2023/08/23 06:10:37;;;;;;;;;;;20.40;61.50;;;;;;5069799;28;19931;-66
2023/08/23 06:13:05;;;;;;;;;;;20.40;62.50;;;;;;5072482;28;19932;-66
2023/08/23 06:15:32;;;;;;;;;;;20.30;63.30;;;;;;5074615;28;19932;-65
2023/08/23 06:17:59;;;;;;;;;;;20.20;61.80;;;;;;5068988;28;19972;-66
2023/08/23 06:20:28;;;;;;;;;;;20.20;63.90;;;;;;5073020;28;19943;-66
2023/08/23 06:22:56;;;;;;;;;;;20.20;63.60;;;;;;5074006;28;19932;-66
2023/08/23 06:25:23;;;;;;;;;;;20.20;61.70;;;;;;5071020;28;19932;-66
2023/08/23 06:27:53;;;;;;;;;;;20.20;63.70;;;;;;5069106;28;19990;-65
2023/08/23 06:30:21;;;;;;;;;;;20.20;64.50;;;;;;5070925;28;19936;-65
2023/08/23 06:32:48;;;;;;;;;;;20.20;62.10;;;;;;5073686;28;19929;-66
2023/08/23 06:35:16;;;;;;;;;;;20.20;60.90;;;;;;5072800;28;19924;-68
2023/08/23 06:37:43;;;;;;;;;;;20.30;61.50;;;;;;5079654;28;19930;-67
2023/08/23 06:40:12;;;;;;;;;;;20.30;62.10;;;;;;5077268;28;19978;-66
2023/08/23 06:42:39;;;;;;;;;;;20.40;60.60;;;;;;5075929;28;20388;-66
2023/08/23 06:45:06;;;;;;;;;;;20.40;62.80;;;;;;5070887;28;19928;-66
2023/08/23 06:47:33;;;;;;;;;;;20.50;62.10;;;;;;5078058;28;19971;-66
2023/08/23 06:50:00;;;;;;;;;;;20.50;64.20;;;;;;5077623;28;20284;-66
2023/08/23 06:54:58;;;;;;;;;;;20.50;66.50;;;;;;5077118;28;19935;-65
2023/08/23 06:57:28;;;;;;;;;;;20.50;66.90;;;;;;5076634;28;19931;-67
2023/08/23 06:59:56;;;;;;;;;;;20.50;66.80;;;;;;5073007;28;19939;-67
2023/08/23 07:02:24;;;;;;;;;;;20.50;67.20;;;;;;5075249;28;20007;-66
2023/08/23 07:04:51;;;;;;;;;;;20.60;67.30;;;;;;5078719;28;19972;-66
2023/08/23 07:07:19;;;;;;;;;;;20.60;67.70;;;;;;5079181;28;19929;-66
2023/08/23 07:09:46;;;;;;;;;;;20.60;67.90;;;;;;5082932;28;20448;-66
2023/08/23 07:12:13;;;;;;;;;;;20.70;67.20;;;;;;5078123;28;19932;-66
2023/08/23 07:14:40;;;;;;;;;;;20.70;67.90;;;;;;5076932;28;19935;-66
2023/08/23 07:17:08;;;;;;;;;;;20.80;66.80;;;;;;5077637;28;20347;-66
2023/08/23 07:19:35;;;;;;;;;;;20.80;66.80;;;;;;5083468;28;19938;-66
2023/08/23 07:22:03;;;;;;;;;;;20.80;67.10;;;;;;5075467;28;20563;-66
2023/08/23 07:24:31;;;;;;;;;;;20.80;66.90;;;;;;5076397;28;19932;-67
2023/08/23 07:26:58;;;;;;;;;;;20.90;66.60;;;;;;5077595;28;19932;-66
2023/08/23 07:29:25;;;;;;;;;;;20.90;66.20;;;;;;5081218;28;19932;-66
2023/08/23 07:31:52;;;;;;;;;;;20.90;67.50;;;;;;5076548;28;20351;-65
2023/08/23 07:34:19;;;;;;;;;;;20.90;67.40;;;;;;5074879;28;20297;-66
2023/08/23 07:36:46;;;;;;;;;;;20.90;66.50;;;;;;5077279;28;20683;-66
2023/08/23 07:39:14;;;;;;;;;;;21.00;67.00;;;;;;5073934;28;19978;-65
2023/08/23 07:41:41;;;;;;;;;;;21.00;66.40;;;;;;5076955;28;19932;-65
2023/08/23 07:44:07;;;;;;;;;;;21.00;66.10;;;;;;5076792;28;19924;-66
2023/08/23 07:46:35;;;;;;;;;;;21.00;66.40;;;;;;5080375;28;19967;-66
2023/08/23 07:49:03;;;;;;;;;;;21.10;66.30;;;;;;5078325;28;19934;-67
2023/08/23 07:51:30;;;;;;;;;;;21.10;63.60;;;;;;5076794;28;19964;-66
2023/08/23 07:53:57;;;;;;;;;;;21.10;65.60;;;;;;5086407;28;19975;-66
2023/08/23 07:56:24;;;;;;;;;;;21.10;65.90;;;;;;5074646;28;19932;-66
2023/08/23 07:58:51;;;;;;;;;;;21.20;65.70;;;;;;5081310;28;20029;-65
2023/08/23 08:01:19;;;;;;;;;;;21.20;66.00;;;;;;5080299;28;20369;-66
2023/08/23 08:03:46;;;;;;;;;;;21.20;66.00;;;;;;5083068;28;20008;-66
2023/08/23 08:06:14;;;;;;;;;;;21.30;65.50;;;;;;5077791;28;20411;-67
2023/08/23 08:08:42;;;;;;;;;;;21.30;65.30;;;;;;5078766;28;20011;-66
2023/08/23 08:11:10;;;;;;;;;;;21.30;65.70;;;;;;5077926;28;19928;-66
2023/08/23 08:13:38;;;;;;;;;;;21.30;64.80;;;;;;5074779;28;20411;-67
2023/08/23 08:16:12;;;;;;;;;;;21.30;66.00;;;;;;5075691;28;20402;-66
2023/08/23 08:18:39;;;;;;;;;;;21.30;65.20;;;;;;5083075;28;19947;-66
2023/08/23 08:21:06;;;;;;;;;;;21.30;64.80;;;;;;5080250;28;19928;-66
2023/08/23 08:23:33;;;;;;;;;;;21.40;65.60;;;;;;5078496;28;20426;-66
2023/08/23 08:26:00;;;;;;;;;;;21.40;65.60;;;;;;5081976;28;19943;-67
2023/08/23 08:28:27;;;;;;;;;;;21.40;66.30;;;;;;5078821;28;19924;-66
2023/08/23 08:30:54;;;;;;;;;;;21.40;64.60;;;;;;5076120;28;19928;-66
2023/08/23 08:33:21;;;;;;;;;;;21.40;64.40;;;;;;5080871;28;19928;-65
2023/08/23 08:35:48;;;;;;;;;;;21.40;64.60;;;;;;5077885;28;19939;-66
2023/08/23 08:38:15;;;;;;;;;;;21.50;65.30;;;;;;5081329;28;19931;-66
2023/08/23 08:40:43;;;;;;;;;;;21.50;63.30;;;;;;5080341;28;19946;-66
2023/08/23 08:43:10;;;;;;;;;;;21.50;64.50;;;;;;5078014;28;20333;-67
2023/08/23 08:45:37;;;;;;;;;;;21.50;64.40;;;;;;5076624;28;19931;-68
2023/08/23 08:48:05;;;;;;;;;;;21.60;64.10;;;;;;5079187;28;19924;-68
2023/08/23 08:50:33;;;;;;;;;;;21.60;61.60;;;;;;5081102;28;20018;-66
2023/08/23 08:53:01;;;;;;;;;;;21.70;63.20;;;;;;5082755;28;19985;-66
2023/08/23 08:55:31;;;;;;;;;;;21.70;62.00;;;;;;5078808;28;19960;-67
2023/08/23 08:57:59;;;;;;;;;;;21.70;60.80;;;;;;5076437;28;19932;-70
2023/08/23 09:00:26;;;;;;;;;;;21.70;61.80;;;;;;5080587;28;19928;-67
2023/08/23 09:02:57;;;;;;;;;;;21.70;63.50;;;;;;5077740;28;20395;-67
2023/08/23 09:05:25;;;;;;;;;;;21.80;61.60;;;;;;5075259;28;19949;-68
2023/08/23 09:07:52;;;;;;;;;;;21.80;62.20;;;;;;5079861;28;19932;-66
2023/08/23 09:10:20;;;;;;;;;;;21.70;63.50;;;;;;5081890;28;19974;-68
2023/08/23 09:12:47;;;;;;;;;;;21.80;62.90;;;;;;5080349;28;19924;-69
2023/08/23 09:15:16;;;;;;;;;;;21.80;63.60;;;;;;5075818;28;20330;-67
2023/08/23 09:17:43;;;;;;;;;;;21.80;61.70;;;;;;5079216;28;19982;-70
2023/08/23 09:20:11;;;;;;;;;;;21.80;64.00;;;;;;5073602;28;19937;-70
2023/08/23 09:22:38;;;;;;;;;;;21.80;62.60;;;;;;5077777;28;20036;-68
2023/08/23 09:25:05;;;;;;;;;;;21.80;61.80;;;;;;5072902;28;20001;-68
2023/08/23 09:27:32;;;;;;;;;;;21.80;63.10;;;;;;5078887;28;20391;-66
2023/08/23 09:30:04;;;;;;;;;;;21.80;63.60;;;;;;5079641;28;19924;-71
2023/08/23 09:32:31;;;;;;;;;;;21.80;62.30;;;;;;5079483;28;19938;-69
2023/08/23 09:35:08;;;;;;;;;;;21.90;61.30;;;;;;5073132;28;19932;-68
2023/08/23 09:37:35;;;;;;;;;;;21.90;60.90;;;;;;5076619;28;19969;-66
2023/08/23 09:40:02;;;;;;;;;;;21.90;62.00;;;;;;5080390;28;19950;-66
2023/08/23 09:42:30;;;;;;;;;;;21.90;62.30;;;;;;5076586;28;19933;-67
2023/08/23 09:44:58;;;;;;;;;;;21.90;62.90;;;;;;5076917;28;19924;-67
2023/08/23 09:47:30;;;;;;;;;;;21.80;62.20;;;;;;5069858;28;19925;-67
2023/08/23 09:49:59;;;;;;;;;;;21.80;62.60;;;;;;5078146;28;19935;-66
2023/08/23 09:52:30;;;;;;;;;;;21.80;62.80;;;;;;5077489;28;19964;-66
2023/08/23 09:55:02;;;;;;;;;;;21.80;62.20;;;;;;5082510;28;19924;-66
2023/08/23 09:57:41;;;;;;;;;;;21.90;62.70;;;;;;5080100;28;19924;-66
2023/08/23 10:00:09;;;;;;;;;;;21.90;61.60;;;;;;5076320;28;20019;-67
2023/08/23 10:02:37;;;;;;;;;;;21.90;61.80;;;;;;5079060;28;20288;-67
2023/08/23 10:05:06;;;;;;;;;;;21.90;63.00;;;;;;5077841;28;19927;-67
2023/08/23 10:07:34;;;;;;;;;;;21.90;63.20;;;;;;5076208;28;19931;-67
2023/08/23 10:10:05;;;;;;;;;;;21.90;63.00;;;;;;5076714;28;19989;-67
2023/08/23 10:12:37;;;;;;;;;;;21.90;61.80;;;;;;5081574;28;19932;-67
2023/08/23 10:15:05;;;;;;;;;;;21.90;61.40;;;;;;5077761;28;20335;-67
2023/08/23 10:17:32;;;;;;;;;;;21.80;62.20;;;;;;5082774;28;19925;-67
2023/08/23 10:20:02;;;;;;;;;;;21.80;61.80;;;;;;5077970;28;20288;-67
2023/08/23 10:22:29;;;;;;;;;;;21.80;61.50;;;;;;5076139;28;19932;-67
2023/08/23 10:25:03;;;;;;;;;;;21.80;61.30;;;;;;5077577;28;19932;-67
2023/08/23 10:27:33;;;;;;;;;;;21.80;62.20;;;;;;5083446;28;20353;-67
2023/08/23 10:30:07;;;;;;;;;;;21.70;61.40;;;;;;5078115;28;20364;-67
2023/08/23 10:32:46;;;;;;;;;;;21.70;61.60;;;;;;5076577;28;19929;-67
2023/08/23 10:35:27;;;;;;;;;;;21.80;61.50;;;;;;5073329;28;19925;-67
2023/08/23 10:37:55;;;;;;;;;;;21.80;61.20;;;;;;5077460;28;19939;-67
2023/08/23 10:40:26;;;;;;;;;;;21.80;61.30;;;;;;5075267;28;19949;-68
2023/08/23 10:42:53;;;;;;;;;;;21.80;61.90;;;;;;5072031;28;19931;-67
2023/08/23 10:45:20;;;;;;;;;;;21.80;60.70;;;;;;5081089;28;19985;-66
2023/08/23 10:47:49;;;;;;;;;;;21.80;61.80;;;;;;5078391;28;19932;-66
2023/08/23 10:50:18;;;;;;;;;;;21.80;61.50;;;;;;5075256;28;20019;-67
2023/08/23 10:52:47;;;;;;;;;;;21.90;62.10;;;;;;5075261;28;19970;-67
2023/08/23 10:55:14;;;;;;;;;;;21.90;62.10;;;;;;5080802;28;20381;-67
2023/08/23 10:57:41;;;;;;;;;;;21.90;61.20;;;;;;5078346;28;20693;-67
2023/08/23 11:00:08;;;;;;;;;;;21.90;61.50;;;;;;5074140;28;19932;-67
2023/08/23 11:02:35;;;;;;;;;;;22.00;61.40;;;;;;5081202;28;19924;-67
2023/08/23 11:05:03;;;;;;;;;;;22.00;61.90;;;;;;5074007;28;20357;-66
2023/08/23 11:07:34;;;;;;;;;;;22.00;61.50;;;;;;5079045;28;19936;-66
2023/08/23 11:10:01;;;;;;;;;;;22.00;61.80;;;;;;5074130;28;20395;-67
2023/08/23 11:12:28;;;;;;;;;;;22.10;61.00;;;;;;5073346;28;19933;-66
2023/08/23 11:14:56;;;;;;;;;;;22.10;61.00;;;;;;5076483;28;19924;-66
2023/08/23 11:17:23;;;;;;;;;;;22.10;61.60;;;;;;5075290;28;19943;-66
2023/08/23 11:19:50;;;;;;;;;;;22.20;60.60;;;;;;5073824;28;19964;-58
2023/08/23 11:22:17;;;;;;;;;;;22.20;61.20;;;;;;5076529;28;20012;-59
2023/08/23 11:24:46;;;;;;;;;;;22.30;61.50;;;;;;5073635;28;21566;-59
2023/08/23 11:27:13;;;;;;;;;;;22.30;59.90;;;;;;5076816;28;19943;-59
2023/08/23 11:29:42;;;;;;;;;;;22.30;59.30;;;;;;5071822;28;19929;-60
2023/08/23 11:32:11;;;;;;;;;;;22.40;59.10;;;;;;5074683;28;20254;-60
2023/08/23 11:34:38;;;;;;;;;;;22.40;59.30;;;;;;5075536;28;19982;-59
2023/08/23 11:37:08;;;;;;;;;;;22.40;60.20;;;;;;5076164;28;19929;-59
2023/08/23 11:39:35;;;;;;;;;;;22.50;60.10;;;;;;5078780;28;19961;-60
2023/08/23 11:42:03;;;;;;;;;;;22.50;59.40;;;;;;5078831;28;20014;-60
2023/08/23 11:44:30;;;;;;;;;;;22.50;60.40;;;;;;5074322;28;19978;-62
2023/08/23 11:46:58;;;;;;;;;;;22.50;58.40;;;;;;5073985;28;19968;-61
2023/08/23 11:49:26;;;;;;;;;;;22.60;60.10;;;;;;5075509;28;20361;-60
2023/08/23 11:51:58;;;;;;;;;;;22.60;59.70;;;;;;5072063;28;19979;-64
2023/08/23 11:54:25;;;;;;;;;;;22.60;59.00;;;;;;5081662;28;19924;-62
2023/08/23 11:56:53;;;;;;;;;;;22.60;60.20;;;;;;5081473;28;19932;-60
2023/08/23 11:59:21;;;;;;;;;;;22.60;61.40;;;;;;5078581;28;20376;-60
2023/08/23 12:01:48;;;;;;;;;;;22.60;58.80;;;;;;5081993;28;19936;-59
2023/08/23 12:04:16;;;;;;;;;;;22.60;58.90;;;;;;5081839;28;19932;-60
2023/08/23 12:06:43;;;;;;;;;;;22.60;60.60;;;;;;5079485;28;19928;-60
2023/08/23 12:09:10;;;;;;;;;;;22.60;60.30;;;;;;5078031;28;20308;-60
2023/08/23 12:11:39;;;;;;;;;;;22.60;60.00;;;;;;5082348;28;19924;-59
2023/08/23 12:14:06;;;;;;;;;;;22.60;58.30;;;;;;5085860;28;20358;-59
2023/08/23 12:16:34;;;;;;;;;;;22.60;58.10;;;;;;5079530;28;20114;-59
2023/08/23 12:19:02;;;;;;;;;;;22.60;59.10;;;;;;5079109;28;19928;-60
2023/08/23 12:21:50;;;;;;;;;;;22.60;59.60;;;;;;5079197;28;20019;-59
2023/08/23 12:24:17;;;;;;;;;;;22.60;60.00;;;;;;5072487;28;19924;-59
2023/08/23 12:26:45;;;;;;;;;;;22.60;58.10;;;;;;5073022;28;19982;-60
2023/08/23 12:29:11;;;;;;;;;;;22.60;61.50;;;;;;5082054;28;19935;-59
2023/08/23 12:31:39;;;;;;;;;;;22.60;59.20;;;;;;5079668;28;19925;-59
2023/08/23 12:34:06;;;;;;;;;;;22.60;58.90;;;;;;5082013;28;19924;-60
2023/08/23 12:36:33;;;;;;;;;;;22.60;60.50;;;;;;5078082;28;19930;-59
2023/08/23 12:39:00;;;;;;;;;;;22.50;60.10;;;;;;5080125;28;19924;-60
2023/08/23 12:41:27;;;;;;;;;;;22.50;58.00;;;;;;5080549;28;20622;-60
2023/08/23 12:43:54;;;;;;;;;;;22.50;59.80;;;;;;5081820;28;19959;-60
2023/08/23 12:46:22;;;;;;;;;;;22.50;60.40;;;;;;5076779;28;19929;-60
2023/08/23 12:48:49;;;;;;;;;;;22.50;61.30;;;;;;5078374;28;19978;-60
2023/08/23 12:51:16;;;;;;;;;;;22.50;60.00;;;;;;5081609;28;19969;-60
2023/08/23 12:53:43;;;;;;;;;;;22.50;62.10;;;;;;5078747;28;19931;-60
2023/08/23 12:56:10;;;;;;;;;;;22.40;60.60;;;;;;5072853;28;19924;-60
2023/08/23 12:58:37;;;;;;;;;;;22.40;61.00;;;;;;5073029;28;19978;-60
2023/08/23 13:01:04;;;;;;;;;;;22.40;61.20;;;;;;5075737;28;19924;-61
2023/08/23 13:03:32;;;;;;;;;;;22.40;60.50;;;;;;5076252;28;19924;-61
2023/08/23 13:06:00;;;;;;;;;;;22.40;60.70;;;;;;5078339;28;19963;-61
2023/08/23 13:08:27;;;;;;;;;;;22.40;61.00;;;;;;5077256;28;20369;-61
2023/08/23 13:10:55;;;;;;;;;;;22.30;61.50;;;;;;5078569;28;20018;-59
2023/08/23 13:13:22;;;;;;;;;;;22.30;60.80;;;;;;5076074;28;19935;-59
2023/08/23 13:15:51;;;;;;;;;;;22.30;61.00;;;;;;5079558;28;19981;-59
2023/08/23 13:18:18;;;;;;;;;;;22.30;60.40;;;;;;5081307;28;19924;-59
2023/08/23 13:20:46;;;;;;;;;;;22.20;60.90;;;;;;5077432;28;19969;-59
2023/08/23 13:23:13;;;;;;;;;;;22.30;62.20;;;;;;5078081;28;19943;-58
2023/08/23 13:25:40;;;;;;;;;;;22.20;61.70;;;;;;5078093;28;20024;-59
2023/08/23 13:28:07;;;;;;;;;;;22.20;61.50;;;;;;5083246;28;19924;-59
2023/08/23 13:30:34;;;;;;;;;;;22.10;61.50;;;;;;5077367;28;20015;-59
2023/08/23 13:33:01;;;;;;;;;;;22.10;61.90;;;;;;5076111;28;19924;-58
2023/08/23 13:35:28;;;;;;;;;;;22.10;62.70;;;;;;5081581;28;19939;-57
2023/08/23 13:37:55;;;;;;;;;;;22.10;60.50;;;;;;5083356;28;19928;-58
2023/08/23 13:40:22;;;;;;;;;;;22.10;61.60;;;;;;5075018;28;19932;-58
2023/08/23 13:42:49;;;;;;;;;;;22.10;62.00;;;;;;5073556;28;19936;-58
2023/08/23 13:45:31;;;;;;;;;;;22.10;62.00;;;;;;5083504;28;19935;-58
2023/08/23 13:47:58;;;;;;;;;;;22.10;62.40;;;;;;5083013;28;20373;-58
2023/08/23 13:50:25;;;;;;;;;;;22.10;62.20;;;;;;5085124;28;20020;-58
2023/08/23 13:52:52;;;;;;;;;;;22.10;61.90;;;;;;5075579;28;20045;-58
2023/08/23 13:55:19;;;;;;;;;;;22.10;61.00;;;;;;5074838;28;19993;-58
2023/08/23 13:57:46;;;;;;;;;;;22.10;61.60;;;;;;5078906;28;19932;-58
2023/08/23 14:00:14;;;;;;;;;;;22.10;62.20;;;;;;5073791;28;19932;-58
2023/08/23 14:02:41;;;;;;;;;;;22.10;62.20;;;;;;5078973;28;19924;-58
2023/08/23 14:05:08;;;;;;;;;;;22.10;62.10;;;;;;5078236;28;20011;-57
2023/08/23 14:07:35;;;;;;;;;;;22.30;70.90;;;;;;5074173;28;19924;-58
2023/08/23 14:10:03;;;;;;;;;;;22.60;75.50;;;;;;5089409;28;19947;-58
2023/08/23 14:12:30;;;;;;;;;;;22.90;77.40;;;;;;5081600;28;20405;-58
2023/08/23 14:14:57;;;;;;;;;;;23.30;77.80;;;;;;5075071;28;19981;-59
2023/08/23 14:17:24;;;;;;;;;;;23.60;77.70;;;;;;5076258;28;20292;-57
2023/08/23 14:19:51;;;;;;;;;;;23.90;77.30;;;;;;5074203;28;19924;-58
2023/08/23 14:22:18;;;;;;;;;;;24.10;77.00;;;;;;5074876;28;20394;-58